createdAt,value
2022-09-22T00:01:31.816Z,8.13
2022-09-22T00:04:01.575Z,8.38
2022-09-22T00:06:31.310Z,8.90
2022-09-22T00:09:01.992Z,8.25
2022-09-22T00:11:30.983Z,7.85
2022-09-22T00:14:00.420Z,7.63
2022-09-22T00:16:29.732Z,7.50
2022-09-22T00:18:57.647Z,8.07
2022-09-22T00:21:27.928Z,7.68
2022-09-22T00:23:56.270Z,8.80
2022-09-22T00:26:25.994Z,7.43
2022-09-22T00:28:53.988Z,8.07
2022-09-22T00:31:23.880Z,8.13
2022-09-22T00:33:51.866Z,7.65
2022-09-22T00:36:22.054Z,7.85
2022-09-22T00:38:51.369Z,8.30
2022-09-22T00:41:20.949Z,8.30
2022-09-22T00:43:51.471Z,7.47
2022-09-22T00:46:21.944Z,8.52
2022-09-22T00:48:51.606Z,8.13
2022-09-22T00:51:23.657Z,7.85
2022-09-22T00:53:52.046Z,7.70
2022-09-22T00:56:22.496Z,8.07
2022-09-22T00:58:54.969Z,8.10
2022-09-22T01:01:22.870Z,7.68
2022-09-22T01:03:51.589Z,8.23
2022-09-22T01:06:22.869Z,7.82
2022-09-22T01:08:50.886Z,8.03
2022-09-22T01:11:20.738Z,8.10
2022-09-22T01:13:54.880Z,8.65
2022-09-22T01:16:36.019Z,7.88
2022-09-22T01:19:21.311Z,7.75
2022-09-22T01:21:52.119Z,7.90
2022-09-22T01:24:55.269Z,8.25
2022-09-22T01:27:31.915Z,8.40
2022-09-22T01:30:19.778Z,8.07
2022-09-22T01:33:10.858Z,8.20
2022-09-22T01:35:46.165Z,7.70
2022-09-22T01:38:18.148Z,8.07
2022-09-22T01:40:50.722Z,8.20
2022-09-22T01:43:25.003Z,8.35
2022-09-22T01:45:55.185Z,8.38
2022-09-22T01:48:25.904Z,8.63
2022-09-22T01:50:56.433Z,8.85
2022-09-22T01:53:27.373Z,8.90
2022-09-22T01:55:57.996Z,8.70
2022-09-22T01:58:30.113Z,8.45
2022-09-22T02:01:02.125Z,9.23
2022-09-22T02:03:36.372Z,8.77
2022-09-22T02:06:07.408Z,8.75
2022-09-22T02:08:38.048Z,8.95
2022-09-22T02:11:10.897Z,9.02
2022-09-22T02:13:38.839Z,8.55
2022-09-22T02:16:09.067Z,9.43
2022-09-22T02:18:41.955Z,8.63
2022-09-22T02:21:10.067Z,8.75
2022-09-22T02:23:38.056Z,8.60
2022-09-22T02:26:07.122Z,8.93
2022-09-22T02:28:37.829Z,9.23
2022-09-22T02:31:24.819Z,8.80
2022-09-22T02:33:53.199Z,8.13
2022-09-22T02:36:35.909Z,8.07
2022-09-22T02:39:08.398Z,8.40
2022-09-22T02:41:42.083Z,8.80
2022-09-22T02:44:15.056Z,9.02
2022-09-22T02:46:47.621Z,8.73
2022-09-22T02:49:18.203Z,8.77
2022-09-22T02:51:47.058Z,8.57
2022-09-22T02:54:15.338Z,8.93
2022-09-22T02:56:43.525Z,8.80
2022-09-22T02:59:11.487Z,9.05
2022-09-22T03:01:39.675Z,8.43
2022-09-22T03:04:09.037Z,9.00
2022-09-22T03:06:36.800Z,8.95
2022-09-22T03:09:05.116Z,9.15
2022-09-22T03:11:33.047Z,8.80
2022-09-22T03:14:00.981Z,8.55
2022-09-22T03:16:30.172Z,9.57
2022-09-22T03:18:58.500Z,9.82
2022-09-22T03:21:27.703Z,9.77
2022-09-22T03:23:55.430Z,8.88
2022-09-22T03:26:23.099Z,8.82
2022-09-22T03:28:50.892Z,8.75
2022-09-22T03:31:18.776Z,9.00
2022-09-22T03:33:51.907Z,8.98
2022-09-22T03:36:20.462Z,9.57
2022-09-22T03:38:50.023Z,8.88
2022-09-22T03:41:17.892Z,9.73
2022-09-22T03:43:45.705Z,9.40
2022-09-22T03:46:14.396Z,9.25
2022-09-22T03:48:45.149Z,8.45
2022-09-22T03:51:13.255Z,10.00
2022-09-22T03:53:41.386Z,9.45
2022-09-22T03:56:13.099Z,9.00
2022-09-22T03:58:41.736Z,9.30
2022-09-22T04:01:11.229Z,9.23
2022-09-22T04:03:39.433Z,9.07
2022-09-22T04:06:08.031Z,8.85
2022-09-22T04:08:35.727Z,8.93
2022-09-22T04:11:03.727Z,9.25
2022-09-22T04:13:32.828Z,8.85
2022-09-22T04:16:00.380Z,8.85
2022-09-22T04:18:29.465Z,8.98
2022-09-22T04:20:58.290Z,9.07
2022-09-22T04:23:26.422Z,9.10
2022-09-22T04:25:54.494Z,9.23
2022-09-22T04:28:25.086Z,10.60
2022-09-22T04:30:54.256Z,10.13
2022-09-22T04:33:22.246Z,10.45
2022-09-22T04:35:50.131Z,10.05
2022-09-22T04:38:18.219Z,10.30
2022-09-22T04:40:46.138Z,9.77
2022-09-22T04:43:13.991Z,10.13
2022-09-22T04:45:45.126Z,9.98
2022-09-22T04:48:14.174Z,7.32
2022-09-22T04:50:47.187Z,10.23
2022-09-22T04:53:15.798Z,10.32
2022-09-22T04:55:43.391Z,10.35
2022-09-22T04:58:11.356Z,11.02
2022-09-22T05:00:39.189Z,9.82
2022-09-22T05:03:09.316Z,9.90
2022-09-22T05:05:38.522Z,10.00
2022-09-22T05:08:07.666Z,10.38
2022-09-22T05:10:36.742Z,10.70
2022-09-22T05:13:05.747Z,9.93
2022-09-22T05:15:34.663Z,9.27
2022-09-22T05:18:02.493Z,9.38
2022-09-22T05:20:30.121Z,10.27
2022-09-22T05:22:59.176Z,9.93
2022-09-22T05:25:26.813Z,10.20
2022-09-22T05:27:56.226Z,10.18
2022-09-22T05:30:25.927Z,10.40
2022-09-22T05:32:53.933Z,10.48
2022-09-22T05:35:23.447Z,10.63
2022-09-22T05:37:53.655Z,9.93
2022-09-22T05:40:24.929Z,10.15
2022-09-22T05:42:53.995Z,7.55
2022-09-22T05:45:22.541Z,10.95
2022-09-22T05:47:50.305Z,11.07
2022-09-22T05:50:19.387Z,10.13
2022-09-22T05:52:46.992Z,11.23
2022-09-22T05:55:15.147Z,10.20
2022-09-22T05:57:44.626Z,11.20
2022-09-22T06:00:27.816Z,11.07
2022-09-22T06:02:55.572Z,11.20
2022-09-22T06:05:23.349Z,10.55
2022-09-22T06:07:59.629Z,10.82
2022-09-22T06:10:27.543Z,12.75
2022-09-22T06:13:00.197Z,16.05
2022-09-22T06:15:28.615Z,13.85
2022-09-22T06:17:56.439Z,14.32
2022-09-22T06:20:24.225Z,12.75
2022-09-22T06:22:51.887Z,10.73
2022-09-22T06:25:19.458Z,10.48
2022-09-22T06:27:47.206Z,10.45
2022-09-22T06:30:16.325Z,11.70
2022-09-22T06:32:46.001Z,11.45
2022-09-22T06:35:13.563Z,10.73
2022-09-22T06:37:41.778Z,12.15
2022-09-22T06:40:12.963Z,11.65
2022-09-22T06:42:44.249Z,11.52
2022-09-22T06:45:14.681Z,12.20
2022-09-22T06:47:43.593Z,12.43
2022-09-22T06:50:11.188Z,12.48
2022-09-22T06:52:38.880Z,11.45
2022-09-22T06:55:07.463Z,12.13
2022-09-22T06:57:35.012Z,11.35
2022-09-22T07:00:03.787Z,11.13
2022-09-22T07:02:31.399Z,11.18
2022-09-22T07:05:00.366Z,11.23
2022-09-22T07:07:28.826Z,12.02
2022-09-22T07:09:56.848Z,12.45
2022-09-22T07:12:25.388Z,12.27
2022-09-22T07:14:54.131Z,11.65
2022-09-22T07:17:21.689Z,11.75
2022-09-22T07:19:51.100Z,12.88
2022-09-22T07:22:20.208Z,11.43
2022-09-22T07:24:47.795Z,12.38
2022-09-22T07:27:20.447Z,12.73
2022-09-22T07:29:48.828Z,12.15
2022-09-22T07:32:16.444Z,13.02
2022-09-22T07:34:45.075Z,12.43
2022-09-22T07:37:15.768Z,11.55
2022-09-22T07:39:45.270Z,11.57
2022-09-22T07:42:12.995Z,12.05
2022-09-22T07:44:57.956Z,10.82
2022-09-22T07:47:39.489Z,11.48
2022-09-22T07:50:07.756Z,11.67
2022-09-22T07:52:35.357Z,10.68
2022-09-22T07:55:04.509Z,10.23
2022-09-22T07:57:32.552Z,10.52
2022-09-22T08:00:00.418Z,10.25
2022-09-22T08:02:29.159Z,10.98
2022-09-22T08:05:02.820Z,10.90
2022-09-22T08:07:31.351Z,11.27
2022-09-22T08:09:59.182Z,10.82
2022-09-22T08:12:28.413Z,10.32
2022-09-22T08:14:57.960Z,10.73
2022-09-22T08:17:25.624Z,11.38
2022-09-22T08:19:53.244Z,11.35
2022-09-22T08:22:20.841Z,11.23
2022-09-22T08:24:48.387Z,10.85
2022-09-22T08:27:15.987Z,10.30
2022-09-22T08:29:44.900Z,11.00
2022-09-22T08:32:12.494Z,10.45
2022-09-22T08:34:40.083Z,10.57
2022-09-22T08:37:07.689Z,9.95
2022-09-22T08:39:36.686Z,10.85
2022-09-22T08:42:10.191Z,10.95
2022-09-22T08:44:41.241Z,10.05
2022-09-22T08:47:17.635Z,10.55
2022-09-22T08:50:05.855Z,10.65
2022-09-22T08:52:38.936Z,10.35
2022-09-22T08:55:08.512Z,10.43
2022-09-22T08:57:56.983Z,9.93
2022-09-22T09:00:25.648Z,9.93
2022-09-22T09:03:03.113Z,9.40
2022-09-22T09:05:50.883Z,10.25
2022-09-22T09:08:32.601Z,9.38
2022-09-22T09:11:08.131Z,9.52
2022-09-22T09:13:46.315Z,9.77
2022-09-22T09:16:28.607Z,9.25
2022-09-22T09:19:01.897Z,9.35
2022-09-22T09:21:30.192Z,9.82
2022-09-22T09:26:52.240Z,9.40
2022-09-22T09:29:24.112Z,9.38
2022-09-22T09:31:53.508Z,9.13
2022-09-22T09:34:24.258Z,9.00
2022-09-22T09:36:55.489Z,9.55
2022-09-22T09:39:29.215Z,10.05
2022-09-22T09:41:57.374Z,8.93
2022-09-22T09:44:29.678Z,8.98
2022-09-22T09:47:03.239Z,9.32
2022-09-22T09:49:32.316Z,10.23
2022-09-22T09:52:02.359Z,9.77
2022-09-22T09:54:30.913Z,8.80
2022-09-22T09:57:10.219Z,9.15
2022-09-22T09:59:56.692Z,9.77
2022-09-22T10:02:27.430Z,9.85
2022-09-22T10:04:57.327Z,9.02
2022-09-22T10:07:27.062Z,9.20
2022-09-22T10:09:56.055Z,9.40
2022-09-22T10:12:28.579Z,9.45
2022-09-22T10:14:57.473Z,9.77
2022-09-22T10:17:29.117Z,9.68
2022-09-22T10:20:17.926Z,9.77
2022-09-22T10:22:45.588Z,9.43
2022-09-22T10:25:22.678Z,9.93
2022-09-22T10:28:14.531Z,9.75
2022-09-22T10:30:43.592Z,9.70
2022-09-22T10:33:17.224Z,9.90
2022-09-22T10:35:47.410Z,9.60
2022-09-22T10:38:22.798Z,9.60
2022-09-22T10:40:56.389Z,9.80
2022-09-22T10:43:35.527Z,9.55
2022-09-22T10:46:17.100Z,9.60
2022-09-22T10:48:48.841Z,9.93
2022-09-22T10:51:28.348Z,9.68
2022-09-22T10:54:14.284Z,10.05
2022-09-22T10:56:44.765Z,9.93
2022-09-22T10:59:33.574Z,9.75
2022-09-22T11:02:18.187Z,9.93
2022-09-22T11:04:55.612Z,9.40
2022-09-22T11:08:06.830Z,9.55
2022-09-22T11:10:56.525Z,9.40
2022-09-22T11:13:34.977Z,9.45
2022-09-22T11:16:35.247Z,9.55
2022-09-22T11:19:40.282Z,9.35
2022-09-22T11:22:27.394Z,9.27
2022-09-22T11:25:08.619Z,9.27
2022-09-22T11:27:46.008Z,9.90
2022-09-22T11:30:20.421Z,9.52
2022-09-22T11:33:13.182Z,10.02
2022-09-22T11:35:45.889Z,9.90
2022-09-22T11:38:24.321Z,9.50
2022-09-22T11:41:14.061Z,10.02
2022-09-22T11:43:52.640Z,10.10
2022-09-22T11:46:24.241Z,10.20
2022-09-22T11:49:03.860Z,9.95
2022-09-22T11:51:55.946Z,10.75
2022-09-22T11:54:32.241Z,10.77
2022-09-22T11:57:04.465Z,10.23
2022-09-22T12:02:05.965Z,9.95
2022-09-22T12:04:38.607Z,9.93
2022-09-22T12:07:10.348Z,10.38
2022-09-22T12:09:40.811Z,10.13
2022-09-22T12:12:13.184Z,10.05
2022-09-22T12:14:41.574Z,9.90
2022-09-22T12:17:12.611Z,10.63
2022-09-22T12:19:49.937Z,9.70
2022-09-22T12:22:22.717Z,10.38
2022-09-22T12:24:50.512Z,10.00
2022-09-22T12:27:22.400Z,10.48
2022-09-22T12:29:57.969Z,10.00
2022-09-22T12:32:35.400Z,9.98
2022-09-22T12:35:03.323Z,10.25
2022-09-22T12:37:32.919Z,9.90
2022-09-22T12:40:07.999Z,10.02
2022-09-22T12:42:38.370Z,10.93
2022-09-22T12:45:11.189Z,9.80
2022-09-22T12:47:40.739Z,10.13
2022-09-22T12:50:32.923Z,9.90
2022-09-22T12:53:04.343Z,10.25
2022-09-22T12:55:38.407Z,10.32
2022-09-22T12:58:43.684Z,10.52
2022-09-22T13:01:34.600Z,9.93
2022-09-22T13:04:17.362Z,9.80
2022-09-22T13:06:58.957Z,9.77
2022-09-22T13:09:29.958Z,10.35
2022-09-22T13:12:21.536Z,10.27
2022-09-22T13:15:20.855Z,10.90
2022-09-22T13:17:49.544Z,10.68
2022-09-22T13:20:20.256Z,10.63
2022-09-22T13:22:47.918Z,10.13
2022-09-22T13:25:26.926Z,10.30
2022-09-22T13:28:10.575Z,10.00
2022-09-22T13:30:40.562Z,10.00
2022-09-22T13:33:18.974Z,9.98
2022-09-22T13:35:46.746Z,9.90
2022-09-22T13:38:15.681Z,10.25
2022-09-22T13:40:47.975Z,10.15
2022-09-22T13:43:22.970Z,9.82
2022-09-22T13:45:52.717Z,10.50
2022-09-22T13:48:21.204Z,10.02
2022-09-22T13:50:52.032Z,10.65
2022-09-22T13:53:20.335Z,10.18
2022-09-22T13:55:49.728Z,10.35
2022-09-22T13:58:23.591Z,10.05
2022-09-22T14:01:14.351Z,10.15
2022-09-22T14:03:42.558Z,10.32
2022-09-22T14:06:11.779Z,9.93
2022-09-22T14:08:39.679Z,10.00
2022-09-22T14:11:12.481Z,10.35
2022-09-22T14:13:42.235Z,10.20
2022-09-22T14:16:18.076Z,10.63
2022-09-22T14:18:48.797Z,10.80
2022-09-22T14:21:16.608Z,10.13
2022-09-22T14:23:45.697Z,10.00
2022-09-22T14:26:33.254Z,10.30
2022-09-22T14:29:09.245Z,9.95
2022-09-22T14:31:39.977Z,9.98
2022-09-22T14:34:09.304Z,10.50
2022-09-22T14:36:37.856Z,10.20
2022-09-22T14:39:09.971Z,10.27
2022-09-22T14:41:39.434Z,10.57
2022-09-22T14:44:26.435Z,10.27
2022-09-22T14:46:57.308Z,11.32
2022-09-22T14:49:39.446Z,10.35
2022-09-22T14:52:08.687Z,9.82
2022-09-22T14:54:38.979Z,10.27
2022-09-22T14:57:08.775Z,10.50
2022-09-22T14:59:52.083Z,9.68
2022-09-22T15:02:33.370Z,10.27
2022-09-22T15:05:03.428Z,10.32
2022-09-22T15:07:32.679Z,10.38
2022-09-22T15:10:02.440Z,10.43
2022-09-22T15:12:37.896Z,9.85
2022-09-22T15:15:16.537Z,9.50
2022-09-22T15:18:04.116Z,9.55
2022-09-22T15:20:38.691Z,9.65
2022-09-22T15:23:06.449Z,10.35
2022-09-22T15:25:34.056Z,9.98
2022-09-22T15:28:06.581Z,9.63
2022-09-22T15:30:34.198Z,10.00
2022-09-22T15:33:03.808Z,10.10
2022-09-22T15:35:34.552Z,10.15
2022-09-22T15:38:02.216Z,10.27
2022-09-22T15:40:30.078Z,10.45
2022-09-22T15:43:12.313Z,10.20
2022-09-22T15:45:47.662Z,10.20
2022-09-22T15:48:26.084Z,9.60
2022-09-22T15:50:54.602Z,9.60
2022-09-22T15:53:23.004Z,10.80
2022-09-22T15:55:51.322Z,9.80
2022-09-22T15:58:19.369Z,10.13
2022-09-22T16:00:48.288Z,10.25
2022-09-22T16:03:22.274Z,10.25
2022-09-22T16:05:52.445Z,9.80
2022-09-22T16:08:20.800Z,9.70
2022-09-22T16:10:48.428Z,9.30
2022-09-22T16:13:16.064Z,9.45
2022-09-22T16:15:43.720Z,9.85
2022-09-22T16:18:11.326Z,9.35
2022-09-22T16:20:39.036Z,9.70
2022-09-22T16:23:08.005Z,9.65
2022-09-22T16:25:35.665Z,9.40
2022-09-22T16:28:03.657Z,9.20
2022-09-22T16:30:31.238Z,9.95
2022-09-22T16:32:58.822Z,9.48
2022-09-22T16:35:26.405Z,9.48
2022-09-22T16:37:57.153Z,9.43
2022-09-22T16:40:28.723Z,9.73
2022-09-22T16:42:56.440Z,9.55
2022-09-22T16:45:38.966Z,10.05
2022-09-22T16:48:07.356Z,9.77
2022-09-22T16:50:39.373Z,9.10
2022-09-22T16:53:11.139Z,10.10
2022-09-22T16:55:40.274Z,9.57
2022-09-22T16:58:13.081Z,9.70
2022-09-22T17:00:40.784Z,10.75
2022-09-22T17:03:08.446Z,10.10
2022-09-22T17:05:37.969Z,10.00
2022-09-22T17:08:06.919Z,9.63
2022-09-22T17:10:35.533Z,9.88
2022-09-22T17:13:05.229Z,10.30
2022-09-22T17:15:35.645Z,9.85
2022-09-22T17:18:04.132Z,10.07
2022-09-22T17:20:31.800Z,9.45
2022-09-22T17:22:59.423Z,9.77
2022-09-22T17:25:29.248Z,9.93
2022-09-22T17:27:57.670Z,9.95
2022-09-22T17:30:26.920Z,10.13
2022-09-22T17:32:54.744Z,10.43
2022-09-22T17:35:22.698Z,9.15
2022-09-22T17:37:52.236Z,10.00
2022-09-22T17:40:19.957Z,9.93
2022-09-22T17:42:48.353Z,9.55
2022-09-22T17:45:17.419Z,9.68
2022-09-22T17:48:04.120Z,9.55
2022-09-22T17:50:49.262Z,10.73
2022-09-22T17:53:34.788Z,11.07
2022-09-22T17:56:05.154Z,9.80
2022-09-22T17:58:33.490Z,11.57
2022-09-22T18:01:01.170Z,12.25
2022-09-22T18:03:30.264Z,11.20
2022-09-22T18:05:58.339Z,10.60
2022-09-22T18:08:26.263Z,10.70
2022-09-22T18:10:54.433Z,11.40
2022-09-22T18:13:22.718Z,10.32
2022-09-22T18:15:50.934Z,10.77
2022-09-22T18:18:18.583Z,10.32
2022-09-22T18:20:48.378Z,10.43
2022-09-22T18:23:16.716Z,9.45
2022-09-22T18:25:44.410Z,9.70
2022-09-22T18:28:12.109Z,9.68
2022-09-22T18:30:43.377Z,10.00
2022-09-22T18:33:13.478Z,9.80
2022-09-22T18:35:45.444Z,10.18
2022-09-22T18:38:15.239Z,9.57
2022-09-22T18:40:42.975Z,10.18
2022-09-22T18:43:10.920Z,9.63
2022-09-22T18:45:38.589Z,9.55
2022-09-22T18:48:07.826Z,9.55
2022-09-22T18:50:35.820Z,10.23
2022-09-22T18:53:03.625Z,9.68
2022-09-22T18:55:32.811Z,10.32
2022-09-22T18:58:01.096Z,9.40
2022-09-22T19:00:28.925Z,9.07
2022-09-22T19:02:56.941Z,9.63
2022-09-22T19:05:24.906Z,8.90
2022-09-22T19:07:53.523Z,9.40
2022-09-22T19:10:21.841Z,9.40
2022-09-22T19:12:51.125Z,9.68
2022-09-22T19:15:19.488Z,9.68
2022-09-22T19:17:49.424Z,9.43
2022-09-22T19:20:20.899Z,9.18
2022-09-22T19:22:50.374Z,9.10
2022-09-22T19:25:20.039Z,9.55
2022-09-22T19:27:47.824Z,9.43
2022-09-22T19:30:20.518Z,9.55
2022-09-22T19:32:50.451Z,8.75
2022-09-22T19:35:18.200Z,9.20
2022-09-22T19:37:45.909Z,9.38
2022-09-22T19:40:18.568Z,13.90
2022-09-22T19:42:46.645Z,16.73
2022-09-22T19:45:15.732Z,10.73
2022-09-22T19:47:43.323Z,9.55
2022-09-22T19:50:10.928Z,9.10
2022-09-22T19:52:38.700Z,9.73
2022-09-22T19:55:07.396Z,9.63
2022-09-22T19:57:36.298Z,9.90
2022-09-22T20:00:04.013Z,9.00
2022-09-22T20:02:33.037Z,9.43
2022-09-22T20:05:00.602Z,9.10
2022-09-22T20:07:28.459Z,9.77
2022-09-22T20:09:56.408Z,9.57
2022-09-22T20:12:23.972Z,9.38
2022-09-22T20:14:51.729Z,9.50
2022-09-22T20:17:19.294Z,9.63
2022-09-22T20:19:48.227Z,9.60
2022-09-22T20:22:22.798Z,9.82
2022-09-22T20:24:54.032Z,9.60
2022-09-22T20:27:25.973Z,9.67
2022-09-22T20:29:56.976Z,9.52
2022-09-22T20:32:26.130Z,9.50
2022-09-22T20:34:55.943Z,9.52
2022-09-22T20:37:24.405Z,9.05
2022-09-22T20:39:52.105Z,9.95
2022-09-22T20:42:19.755Z,9.40
2022-09-22T20:44:49.077Z,9.55
2022-09-22T20:47:18.574Z,9.48
2022-09-22T20:49:51.357Z,9.48
2022-09-22T20:52:21.540Z,9.60
2022-09-22T20:54:49.725Z,10.30
2022-09-22T20:57:18.036Z,9.15
2022-09-22T20:59:46.349Z,9.55
2022-09-22T21:02:15.126Z,9.82
2022-09-22T21:04:43.113Z,9.13
2022-09-22T21:07:11.229Z,9.25
2022-09-22T21:09:57.662Z,9.07
2022-09-22T21:12:30.689Z,9.85
2022-09-22T21:14:58.917Z,8.57
2022-09-22T21:17:27.681Z,9.63
2022-09-22T21:19:56.345Z,9.32
2022-09-22T21:22:24.501Z,9.30
2022-09-22T21:24:53.986Z,9.48
2022-09-22T21:27:21.696Z,9.30
2022-09-22T21:29:49.330Z,9.82
2022-09-22T21:32:17.216Z,9.35
2022-09-22T21:34:44.853Z,9.40
2022-09-22T21:37:12.440Z,9.43
2022-09-22T21:39:40.114Z,9.70
2022-09-22T21:42:09.371Z,9.35
2022-09-22T21:44:37.044Z,9.73
2022-09-22T21:47:04.975Z,10.00
2022-09-22T21:49:33.037Z,9.50
2022-09-22T21:52:01.393Z,9.48
2022-09-22T21:54:31.177Z,9.80
2022-09-22T21:56:59.032Z,9.23
2022-09-22T21:59:29.135Z,8.98
2022-09-22T22:01:57.276Z,9.60
2022-09-22T22:04:25.413Z,8.75
2022-09-22T22:06:53.171Z,9.23
2022-09-22T22:09:22.527Z,9.98
2022-09-22T22:11:57.384Z,9.68
2022-09-22T22:14:27.212Z,9.73
2022-09-22T22:16:56.602Z,8.77
2022-09-22T22:19:26.999Z,9.45
2022-09-22T22:21:56.164Z,9.65
2022-09-22T22:24:39.391Z,10.13
2022-09-22T22:27:10.198Z,11.25
2022-09-22T22:29:39.624Z,9.77
2022-09-22T22:32:10.401Z,10.23
2022-09-22T22:34:38.265Z,10.63
2022-09-22T22:37:10.051Z,9.80
2022-09-22T22:39:37.766Z,10.93
2022-09-22T22:42:06.203Z,9.95
2022-09-22T22:44:35.135Z,9.65
2022-09-22T22:47:02.872Z,9.95
2022-09-22T22:49:32.561Z,9.63
2022-09-22T22:52:00.262Z,9.27
2022-09-22T22:54:27.941Z,9.93
2022-09-22T22:56:55.564Z,9.82
2022-09-22T22:59:23.292Z,9.90
2022-09-22T23:01:51.017Z,9.50
2022-09-22T23:04:18.691Z,9.60
2022-09-22T23:06:48.470Z,10.10
2022-09-22T23:09:17.787Z,10.00
2022-09-22T23:11:46.354Z,9.15
2022-09-22T23:14:16.139Z,10.02
2022-09-22T23:16:45.675Z,9.90
2022-09-22T23:19:14.853Z,10.23
2022-09-22T23:21:42.627Z,10.48
2022-09-22T23:24:15.363Z,9.65
2022-09-22T23:26:43.032Z,10.40
2022-09-22T23:29:10.853Z,9.90
2022-09-22T23:31:38.553Z,9.82
2022-09-22T23:34:06.237Z,9.77
2022-09-22T23:36:33.978Z,10.43
2022-09-22T23:39:03.524Z,9.82
2022-09-22T23:41:34.712Z,10.13
2022-09-22T23:44:03.527Z,8.98
2022-09-22T23:46:31.754Z,9.55
2022-09-22T23:49:00.494Z,10.00
2022-09-22T23:51:28.278Z,10.18
2022-09-22T23:53:56.249Z,9.55
2022-09-22T23:56:24.162Z,8.90
2022-09-22T23:58:53.788Z,9.00
